sensor_id;sensor_type;location;lat;lon;timestamp;temperature;humidity
24522;DHT22;12680;57.804;12.190;2023-06-10T00:00:28;14.10;55.60
24522;DHT22;12680;57.804;12.190;2023-06-10T00:02:57;14.10;55.80
24522;DHT22;12680;57.804;12.190;2023-06-10T00:05:23;14.00;55.80
24522;DHT22;12680;57.804;12.190;2023-06-10T00:07:50;14.00;55.70
24522;DHT22;12680;57.804;12.190;2023-06-10T00:10:17;13.90;55.60
24522;DHT22;12680;57.804;12.190;2023-06-10T00:12:44;13.90;55.60
24522;DHT22;12680;57.804;12.190;2023-06-10T00:15:11;13.80;55.60
24522;DHT22;12680;57.804;12.190;2023-06-10T00:17:38;13.80;55.80
24522;DHT22;12680;57.804;12.190;2023-06-10T00:20:08;13.70;56.10
24522;DHT22;12680;57.804;12.190;2023-06-10T00:22:38;13.70;56.20
24522;DHT22;12680;57.804;12.190;2023-06-10T00:25:06;13.70;56.50
24522;DHT22;12680;57.804;12.190;2023-06-10T00:27:34;13.60;56.70
24522;DHT22;12680;57.804;12.190;2023-06-10T00:30:05;13.60;56.70
24522;DHT22;12680;57.804;12.190;2023-06-10T00:32:34;13.50;56.80
24522;DHT22;12680;57.804;12.190;2023-06-10T00:35:03;13.50;56.90
24522;DHT22;12680;57.804;12.190;2023-06-10T00:37:30;13.50;57.00
24522;DHT22;12680;57.804;12.190;2023-06-10T00:39:56;13.40;57.10
24522;DHT22;12680;57.804;12.190;2023-06-10T00:42:23;13.30;57.30
24522;DHT22;12680;57.804;12.190;2023-06-10T00:44:51;13.30;57.60
24522;DHT22;12680;57.804;12.190;2023-06-10T00:47:18;13.30;57.70
24522;DHT22;12680;57.804;12.190;2023-06-10T00:49:46;13.20;57.80
24522;DHT22;12680;57.804;12.190;2023-06-10T00:52:14;13.20;57.90
24522;DHT22;12680;57.804;12.190;2023-06-10T00:54:41;13.10;57.90
24522;DHT22;12680;57.804;12.190;2023-06-10T00:57:08;13.10;57.80
24522;DHT22;12680;57.804;12.190;2023-06-10T00:59:36;13.00;57.90
24522;DHT22;12680;57.804;12.190;2023-06-10T01:02:03;13.00;58.00
24522;DHT22;12680;57.804;12.190;2023-06-10T01:04:30;12.90;58.10
24522;DHT22;12680;57.804;12.190;2023-06-10T01:07:17;12.90;58.10
24522;DHT22;12680;57.804;12.190;2023-06-10T01:09:55;12.90;58.20
24522;DHT22;12680;57.804;12.190;2023-06-10T01:12:41;12.80;58.20
24522;DHT22;12680;57.804;12.190;2023-06-10T01:15:16;12.70;58.20
24522;DHT22;12680;57.804;12.190;2023-06-10T01:17:54;12.80;58.30
24522;DHT22;12680;57.804;12.190;2023-06-10T01:20:21;12.70;58.30
24522;DHT22;12680;57.804;12.190;2023-06-10T01:22:49;12.70;58.30
24522;DHT22;12680;57.804;12.190;2023-06-10T01:25:17;12.70;58.30
24522;DHT22;12680;57.804;12.190;2023-06-10T01:27:47;12.60;58.90
24522;DHT22;12680;57.804;12.190;2023-06-10T01:30:18;12.60;58.50
24522;DHT22;12680;57.804;12.190;2023-06-10T01:32:51;12.60;58.60
24522;DHT22;12680;57.804;12.190;2023-06-10T01:35:20;12.50;58.80
24522;DHT22;12680;57.804;12.190;2023-06-10T01:37:50;12.50;58.90
24522;DHT22;12680;57.804;12.190;2023-06-10T01:40:19;12.40;59.10
24522;DHT22;12680;57.804;12.190;2023-06-10T01:42:47;12.40;59.20
24522;DHT22;12680;57.804;12.190;2023-06-10T01:45:13;12.40;59.40
24522;DHT22;12680;57.804;12.190;2023-06-10T01:47:40;12.30;59.50
24522;DHT22;12680;57.804;12.190;2023-06-10T01:50:07;12.30;59.70
24522;DHT22;12680;57.804;12.190;2023-06-10T01:52:34;12.20;59.90
24522;DHT22;12680;57.804;12.190;2023-06-10T01:55:01;12.20;60.10
24522;DHT22;12680;57.804;12.190;2023-06-10T01:57:28;12.10;60.20
24522;DHT22;12680;57.804;12.190;2023-06-10T01:59:54;12.10;60.60
24522;DHT22;12680;57.804;12.190;2023-06-10T02:02:21;12.10;61.10
24522;DHT22;12680;57.804;12.190;2023-06-10T02:04:49;12.00;61.10
24522;DHT22;12680;57.804;12.190;2023-06-10T02:07:16;12.00;61.40
24522;DHT22;12680;57.804;12.190;2023-06-10T02:09:42;12.00;61.50
24522;DHT22;12680;57.804;12.190;2023-06-10T02:12:09;12.00;61.70
24522;DHT22;12680;57.804;12.190;2023-06-10T02:14:36;11.90;61.80
24522;DHT22;12680;57.804;12.190;2023-06-10T02:17:03;11.90;62.00
24522;DHT22;12680;57.804;12.190;2023-06-10T02:19:31;11.90;62.30
24522;DHT22;12680;57.804;12.190;2023-06-10T02:21:57;11.90;62.50
24522;DHT22;12680;57.804;12.190;2023-06-10T02:24:24;11.80;62.70
24522;DHT22;12680;57.804;12.190;2023-06-10T02:26:51;11.90;62.70
24522;DHT22;12680;57.804;12.190;2023-06-10T02:29:18;11.80;62.90
24522;DHT22;12680;57.804;12.190;2023-06-10T02:31:45;11.80;63.10
24522;DHT22;12680;57.804;12.190;2023-06-10T02:34:11;11.80;63.40
24522;DHT22;12680;57.804;12.190;2023-06-10T02:36:38;11.80;63.70
24522;DHT22;12680;57.804;12.190;2023-06-10T02:39:05;11.70;63.70
24522;DHT22;12680;57.804;12.190;2023-06-10T02:41:32;11.70;63.70
24522;DHT22;12680;57.804;12.190;2023-06-10T02:43:58;11.70;63.90
24522;DHT22;12680;57.804;12.190;2023-06-10T02:46:25;11.70;63.80
24522;DHT22;12680;57.804;12.190;2023-06-10T02:48:52;11.70;63.80
24522;DHT22;12680;57.804;12.190;2023-06-10T02:51:19;11.60;63.80
24522;DHT22;12680;57.804;12.190;2023-06-10T02:53:46;11.60;63.90
24522;DHT22;12680;57.804;12.190;2023-06-10T02:56:15;11.60;64.10
24522;DHT22;12680;57.804;12.190;2023-06-10T02:58:42;11.60;64.30
24522;DHT22;12680;57.804;12.190;2023-06-10T03:01:09;11.60;64.30
24522;DHT22;12680;57.804;12.190;2023-06-10T03:03:36;11.60;64.10
24522;DHT22;12680;57.804;12.190;2023-06-10T03:06:12;11.60;64.30
24522;DHT22;12680;57.804;12.190;2023-06-10T03:08:40;11.60;64.70
24522;DHT22;12680;57.804;12.190;2023-06-10T03:11:07;11.60;64.70
24522;DHT22;12680;57.804;12.190;2023-06-10T03:13:33;11.60;64.70
24522;DHT22;12680;57.804;12.190;2023-06-10T03:16:00;11.60;65.40
24522;DHT22;12680;57.804;12.190;2023-06-10T03:18:28;11.60;64.60
24522;DHT22;12680;57.804;12.190;2023-06-10T03:20:55;11.70;65.00
24522;DHT22;12680;57.804;12.190;2023-06-10T03:23:22;11.70;65.20
24522;DHT22;12680;57.804;12.190;2023-06-10T03:25:49;11.70;65.50
24522;DHT22;12680;57.804;12.190;2023-06-10T03:28:16;11.70;65.40
24522;DHT22;12680;57.804;12.190;2023-06-10T03:30:43;11.80;65.50
24522;DHT22;12680;57.804;12.190;2023-06-10T03:33:09;11.80;65.60
24522;DHT22;12680;57.804;12.190;2023-06-10T03:35:36;11.90;65.80
24522;DHT22;12680;57.804;12.190;2023-06-10T03:38:03;11.90;65.80
24522;DHT22;12680;57.804;12.190;2023-06-10T03:40:30;12.00;66.00
24522;DHT22;12680;57.804;12.190;2023-06-10T03:42:58;12.00;66.00
24522;DHT22;12680;57.804;12.190;2023-06-10T03:45:25;12.00;66.20
24522;DHT22;12680;57.804;12.190;2023-06-10T03:47:54;12.10;66.40
24522;DHT22;12680;57.804;12.190;2023-06-10T03:50:22;12.10;66.50
24522;DHT22;12680;57.804;12.190;2023-06-10T03:52:50;13.50;67.00
24522;DHT22;12680;57.804;12.190;2023-06-10T03:55:17;12.20;66.00
24522;DHT22;12680;57.804;12.190;2023-06-10T03:57:44;12.30;65.80
24522;DHT22;12680;57.804;12.190;2023-06-10T04:00:11;13.00;66.10
24522;DHT22;12680;57.804;12.190;2023-06-10T04:02:38;12.30;65.20
24522;DHT22;12680;57.804;12.190;2023-06-10T04:05:14;12.40;65.10
24522;DHT22;12680;57.804;12.190;2023-06-10T04:07:41;12.40;65.00
24522;DHT22;12680;57.804;12.190;2023-06-10T04:10:10;12.40;65.00
24522;DHT22;12680;57.804;12.190;2023-06-10T04:12:37;12.50;65.10
24522;DHT22;12680;57.804;12.190;2023-06-10T04:15:05;12.50;64.80
24522;DHT22;12680;57.804;12.190;2023-06-10T04:17:33;12.50;64.70
24522;DHT22;12680;57.804;12.190;2023-06-10T04:20:00;12.60;64.70
24522;DHT22;12680;57.804;12.190;2023-06-10T04:22:27;12.70;64.80
24522;DHT22;12680;57.804;12.190;2023-06-10T04:24:54;12.70;64.80
24522;DHT22;12680;57.804;12.190;2023-06-10T04:27:21;12.80;64.90
24522;DHT22;12680;57.804;12.190;2023-06-10T04:29:48;12.80;64.90
24522;DHT22;12680;57.804;12.190;2023-06-10T04:32:14;12.80;64.80
24522;DHT22;12680;57.804;12.190;2023-06-10T04:34:41;12.90;64.70
24522;DHT22;12680;57.804;12.190;2023-06-10T04:37:09;12.90;64.70
24522;DHT22;12680;57.804;12.190;2023-06-10T04:39:35;13.00;64.40
24522;DHT22;12680;57.804;12.190;2023-06-10T04:42:05;13.00;64.40
24522;DHT22;12680;57.804;12.190;2023-06-10T04:44:32;13.00;64.30
24522;DHT22;12680;57.804;12.190;2023-06-10T04:46:59;13.10;64.30
24522;DHT22;12680;57.804;12.190;2023-06-10T04:49:26;13.10;64.40
24522;DHT22;12680;57.804;12.190;2023-06-10T04:51:52;13.20;64.40
24522;DHT22;12680;57.804;12.190;2023-06-10T04:54:19;13.20;64.20
24522;DHT22;12680;57.804;12.190;2023-06-10T04:56:46;13.30;63.90
24522;DHT22;12680;57.804;12.190;2023-06-10T04:59:13;13.40;64.00
24522;DHT22;12680;57.804;12.190;2023-06-10T05:01:41;13.50;63.90
24522;DHT22;12680;57.804;12.190;2023-06-10T05:04:08;13.50;63.60
24522;DHT22;12680;57.804;12.190;2023-06-10T05:06:35;13.60;63.20
24522;DHT22;12680;57.804;12.190;2023-06-10T05:09:03;13.60;63.00
24522;DHT22;12680;57.804;12.190;2023-06-10T05:11:30;14.40;63.40
24522;DHT22;12680;57.804;12.190;2023-06-10T05:13:56;13.80;63.00
24522;DHT22;12680;57.804;12.190;2023-06-10T05:16:23;14.50;63.20
24522;DHT22;12680;57.804;12.190;2023-06-10T05:18:50;14.00;62.70
24522;DHT22;12680;57.804;12.190;2023-06-10T05:21:18;14.10;62.30
24522;DHT22;12680;57.804;12.190;2023-06-10T05:23:45;14.20;62.10
24522;DHT22;12680;57.804;12.190;2023-06-10T05:26:12;14.30;61.70
24522;DHT22;12680;57.804;12.190;2023-06-10T05:28:38;14.40;61.50
24522;DHT22;12680;57.804;12.190;2023-06-10T05:31:05;14.50;61.50
24522;DHT22;12680;57.804;12.190;2023-06-10T05:33:32;14.60;61.40
24522;DHT22;12680;57.804;12.190;2023-06-10T05:35:59;14.70;61.20
24522;DHT22;12680;57.804;12.190;2023-06-10T05:38:26;14.80;61.20
24522;DHT22;12680;57.804;12.190;2023-06-10T05:40:52;14.90;61.10
24522;DHT22;12680;57.804;12.190;2023-06-10T05:43:19;15.00;60.80
24522;DHT22;12680;57.804;12.190;2023-06-10T05:45:46;15.10;60.60
24522;DHT22;12680;57.804;12.190;2023-06-10T05:48:13;15.40;60.30
24522;DHT22;12680;57.804;12.190;2023-06-10T05:50:40;15.30;60.20
24522;DHT22;12680;57.804;12.190;2023-06-10T05:53:09;15.40;60.20
24522;DHT22;12680;57.804;12.190;2023-06-10T05:55:45;15.50;60.10
24522;DHT22;12680;57.804;12.190;2023-06-10T05:58:13;15.60;60.10
24522;DHT22;12680;57.804;12.190;2023-06-10T06:00:40;15.70;59.80
24522;DHT22;12680;57.804;12.190;2023-06-10T06:03:08;15.80;59.70
24522;DHT22;12680;57.804;12.190;2023-06-10T06:05:38;15.80;59.80
24522;DHT22;12680;57.804;12.190;2023-06-10T06:08:06;16.10;59.90
24522;DHT22;12680;57.804;12.190;2023-06-10T06:10:33;16.20;59.40
24522;DHT22;12680;57.804;12.190;2023-06-10T06:13:00;16.40;59.40
24522;DHT22;12680;57.804;12.190;2023-06-10T06:15:27;16.50;59.10
24522;DHT22;12680;57.804;12.190;2023-06-10T06:17:54;16.70;59.60
24522;DHT22;12680;57.804;12.190;2023-06-10T06:20:22;16.80;58.80
24522;DHT22;12680;57.804;12.190;2023-06-10T06:22:49;17.00;58.60
24522;DHT22;12680;57.804;12.190;2023-06-10T06:25:16;17.10;58.60
24522;DHT22;12680;57.804;12.190;2023-06-10T06:27:43;17.30;58.30
24522;DHT22;12680;57.804;12.190;2023-06-10T06:30:10;17.30;58.10
24522;DHT22;12680;57.804;12.190;2023-06-10T06:32:37;17.40;57.90
24522;DHT22;12680;57.804;12.190;2023-06-10T06:35:04;17.40;57.70
24522;DHT22;12680;57.804;12.190;2023-06-10T06:37:35;17.40;57.60
24522;DHT22;12680;57.804;12.190;2023-06-10T06:40:03;17.40;57.80
24522;DHT22;12680;57.804;12.190;2023-06-10T06:42:30;17.50;57.80
24522;DHT22;12680;57.804;12.190;2023-06-10T06:44:57;17.60;57.60
24522;DHT22;12680;57.804;12.190;2023-06-10T06:47:24;17.60;57.50
24522;DHT22;12680;57.804;12.190;2023-06-10T06:49:51;17.60;57.30
24522;DHT22;12680;57.804;12.190;2023-06-10T06:52:18;17.60;58.00
24522;DHT22;12680;57.804;12.190;2023-06-10T06:54:45;17.60;57.40
24522;DHT22;12680;57.804;12.190;2023-06-10T06:57:12;17.60;57.40
24522;DHT22;12680;57.804;12.190;2023-06-10T06:59:39;17.70;57.40
24522;DHT22;12680;57.804;12.190;2023-06-10T07:02:06;17.70;57.40
24522;DHT22;12680;57.804;12.190;2023-06-10T07:04:33;17.60;57.30
24522;DHT22;12680;57.804;12.190;2023-06-10T07:07:00;17.60;57.40
24522;DHT22;12680;57.804;12.190;2023-06-10T07:09:26;17.60;57.40
24522;DHT22;12680;57.804;12.190;2023-06-10T07:11:54;17.70;57.50
24522;DHT22;12680;57.804;12.190;2023-06-10T07:14:21;17.70;57.50
24522;DHT22;12680;57.804;12.190;2023-06-10T07:16:48;17.60;57.50
24522;DHT22;12680;57.804;12.190;2023-06-10T07:19:16;17.70;57.60
24522;DHT22;12680;57.804;12.190;2023-06-10T07:21:43;17.90;57.60
24522;DHT22;12680;57.804;12.190;2023-06-10T07:24:09;17.90;57.40
24522;DHT22;12680;57.804;12.190;2023-06-10T07:26:36;18.10;57.30
24522;DHT22;12680;57.804;12.190;2023-06-10T07:29:03;18.20;57.20
24522;DHT22;12680;57.804;12.190;2023-06-10T07:31:30;18.30;56.90
24522;DHT22;12680;57.804;12.190;2023-06-10T07:33:57;18.40;56.50
24522;DHT22;12680;57.804;12.190;2023-06-10T07:36:24;18.60;56.50
24522;DHT22;12680;57.804;12.190;2023-06-10T07:38:54;18.70;56.20
24522;DHT22;12680;57.804;12.190;2023-06-10T07:41:23;18.80;55.80
24522;DHT22;12680;57.804;12.190;2023-06-10T07:43:55;18.80;55.40
24522;DHT22;12680;57.804;12.190;2023-06-10T07:46:23;18.90;55.30
24522;DHT22;12680;57.804;12.190;2023-06-10T07:48:51;18.90;55.00
24522;DHT22;12680;57.804;12.190;2023-06-10T07:51:17;18.90;55.00
24522;DHT22;12680;57.804;12.190;2023-06-10T07:53:44;19.00;55.20
24522;DHT22;12680;57.804;12.190;2023-06-10T07:56:11;19.20;55.10
24522;DHT22;12680;57.804;12.190;2023-06-10T07:58:38;19.30;54.60
24522;DHT22;12680;57.804;12.190;2023-06-10T08:01:04;19.50;54.50
24522;DHT22;12680;57.804;12.190;2023-06-10T08:03:31;19.60;54.60
24522;DHT22;12680;57.804;12.190;2023-06-10T08:05:58;19.70;54.00
24522;DHT22;12680;57.804;12.190;2023-06-10T08:08:25;19.80;53.70
24522;DHT22;12680;57.804;12.190;2023-06-10T08:10:52;19.80;53.40
24522;DHT22;12680;57.804;12.190;2023-06-10T08:13:19;19.90;53.70
24522;DHT22;12680;57.804;12.190;2023-06-10T08:15:46;20.00;53.60
24522;DHT22;12680;57.804;12.190;2023-06-10T08:18:14;20.00;53.30
24522;DHT22;12680;57.804;12.190;2023-06-10T08:20:41;20.10;53.10
24522;DHT22;12680;57.804;12.190;2023-06-10T08:23:08;20.10;52.40
24522;DHT22;12680;57.804;12.190;2023-06-10T08:25:34;20.20;52.60
24522;DHT22;12680;57.804;12.190;2023-06-10T08:28:01;20.30;52.30
24522;DHT22;12680;57.804;12.190;2023-06-10T08:30:28;20.30;52.20
24522;DHT22;12680;57.804;12.190;2023-06-10T08:32:55;20.40;52.10
24522;DHT22;12680;57.804;12.190;2023-06-10T08:35:22;20.40;51.90
24522;DHT22;12680;57.804;12.190;2023-06-10T08:37:49;20.50;51.80
24522;DHT22;12680;57.804;12.190;2023-06-10T08:40:15;20.50;52.30
24522;DHT22;12680;57.804;12.190;2023-06-10T08:42:47;20.60;51.00
24522;DHT22;12680;57.804;12.190;2023-06-10T08:45:18;20.40;50.10
24522;DHT22;12680;57.804;12.190;2023-06-10T08:47:46;20.50;50.50
24522;DHT22;12680;57.804;12.190;2023-06-10T08:50:16;20.50;50.50
24522;DHT22;12680;57.804;12.190;2023-06-10T08:52:44;20.60;50.40
24522;DHT22;12680;57.804;12.190;2023-06-10T08:55:27;20.70;50.40
24522;DHT22;12680;57.804;12.190;2023-06-10T08:58:01;20.80;50.40
24522;DHT22;12680;57.804;12.190;2023-06-10T09:00:30;21.00;50.10
24522;DHT22;12680;57.804;12.190;2023-06-10T09:02:58;21.10;50.00
24522;DHT22;12680;57.804;12.190;2023-06-10T09:05:33;21.20;49.40
24522;DHT22;12680;57.804;12.190;2023-06-10T09:08:00;21.10;49.20
24522;DHT22;12680;57.804;12.190;2023-06-10T09:10:27;21.20;49.50
24522;DHT22;12680;57.804;12.190;2023-06-10T09:12:54;21.30;49.70
24522;DHT22;12680;57.804;12.190;2023-06-10T09:15:21;21.40;49.40
24522;DHT22;12680;57.804;12.190;2023-06-10T09:17:48;21.60;49.10
24522;DHT22;12680;57.804;12.190;2023-06-10T09:20:15;21.60;48.20
24522;DHT22;12680;57.804;12.190;2023-06-10T09:22:42;21.60;47.90
24522;DHT22;12680;57.804;12.190;2023-06-10T09:25:13;21.60;47.70
24522;DHT22;12680;57.804;12.190;2023-06-10T09:28:00;21.60;47.90
24522;DHT22;12680;57.804;12.190;2023-06-10T09:30:29;21.70;47.80
24522;DHT22;12680;57.804;12.190;2023-06-10T09:32:59;21.90;47.80
24522;DHT22;12680;57.804;12.190;2023-06-10T09:35:27;21.90;47.40
24522;DHT22;12680;57.804;12.190;2023-06-10T09:37:59;21.90;47.50
24522;DHT22;12680;57.804;12.190;2023-06-10T09:40:26;22.00;47.60
24522;DHT22;12680;57.804;12.190;2023-06-10T09:42:57;22.10;47.70
24522;DHT22;12680;57.804;12.190;2023-06-10T09:45:29;22.10;47.10
24522;DHT22;12680;57.804;12.190;2023-06-10T09:47:57;22.10;48.10
24522;DHT22;12680;57.804;12.190;2023-06-10T09:50:24;22.10;47.30
24522;DHT22;12680;57.804;12.190;2023-06-10T09:52:51;22.20;47.10
24522;DHT22;12680;57.804;12.190;2023-06-10T09:55:18;22.20;47.00
24522;DHT22;12680;57.804;12.190;2023-06-10T09:57:49;22.30;47.20
24522;DHT22;12680;57.804;12.190;2023-06-10T10:00:16;22.40;47.00
24522;DHT22;12680;57.804;12.190;2023-06-10T10:02:51;22.50;46.70
24522;DHT22;12680;57.804;12.190;2023-06-10T10:05:20;22.50;45.90
24522;DHT22;12680;57.804;12.190;2023-06-10T10:07:49;22.40;45.90
24522;DHT22;12680;57.804;12.190;2023-06-10T10:10:17;22.50;45.50
24522;DHT22;12680;57.804;12.190;2023-06-10T10:12:47;22.50;45.60
24522;DHT22;12680;57.804;12.190;2023-06-10T10:15:15;22.40;45.50
24522;DHT22;12680;57.804;12.190;2023-06-10T10:17:52;22.50;45.70
24522;DHT22;12680;57.804;12.190;2023-06-10T10:20:22;22.50;45.60
24522;DHT22;12680;57.804;12.190;2023-06-10T10:22:52;22.60;45.90
24522;DHT22;12680;57.804;12.190;2023-06-10T10:25:28;22.70;46.30
24522;DHT22;12680;57.804;12.190;2023-06-10T10:28:08;22.80;45.70
24522;DHT22;12680;57.804;12.190;2023-06-10T10:30:40;22.90;45.40
24522;DHT22;12680;57.804;12.190;2023-06-10T10:33:12;22.90;45.20
24522;DHT22;12680;57.804;12.190;2023-06-10T10:35:39;23.00;44.90
24522;DHT22;12680;57.804;12.190;2023-06-10T10:38:07;23.10;44.90
24522;DHT22;12680;57.804;12.190;2023-06-10T10:40:35;23.20;45.10
24522;DHT22;12680;57.804;12.190;2023-06-10T10:43:03;23.20;45.00
24522;DHT22;12680;57.804;12.190;2023-06-10T10:45:29;23.20;44.90
24522;DHT22;12680;57.804;12.190;2023-06-10T10:47:56;23.30;44.70
24522;DHT22;12680;57.804;12.190;2023-06-10T10:50:24;23.40;44.60
24522;DHT22;12680;57.804;12.190;2023-06-10T10:53:02;23.40;44.70
24522;DHT22;12680;57.804;12.190;2023-06-10T10:55:29;23.50;44.70
24522;DHT22;12680;57.804;12.190;2023-06-10T10:58:03;23.60;44.60
24522;DHT22;12680;57.804;12.190;2023-06-10T11:00:32;23.60;44.20
24522;DHT22;12680;57.804;12.190;2023-06-10T11:03:04;23.80;44.60
24522;DHT22;12680;57.804;12.190;2023-06-10T11:05:37;23.70;44.30
24522;DHT22;12680;57.804;12.190;2023-06-10T11:08:08;23.60;43.50
24522;DHT22;12680;57.804;12.190;2023-06-10T11:10:38;23.60;43.90
24522;DHT22;12680;57.804;12.190;2023-06-10T11:13:08;23.70;44.20
24522;DHT22;12680;57.804;12.190;2023-06-10T11:15:48;23.90;44.20
24522;DHT22;12680;57.804;12.190;2023-06-10T11:18:26;24.00;44.00
24522;DHT22;12680;57.804;12.190;2023-06-10T11:26:13;24.40;42.60
24522;DHT22;12680;57.804;12.190;2023-06-10T11:28:41;24.50;42.30
24522;DHT22;12680;57.804;12.190;2023-06-10T11:31:18;24.50;42.60
24522;DHT22;12680;57.804;12.190;2023-06-10T11:33:47;24.50;42.20
24522;DHT22;12680;57.804;12.190;2023-06-10T11:36:14;24.60;42.50
24522;DHT22;12680;57.804;12.190;2023-06-10T11:38:42;24.70;42.50
24522;DHT22;12680;57.804;12.190;2023-06-10T11:41:11;24.80;42.30
24522;DHT22;12680;57.804;12.190;2023-06-10T11:43:44;24.90;41.90
24522;DHT22;12680;57.804;12.190;2023-06-10T11:46:14;25.00;41.70
24522;DHT22;12680;57.804;12.190;2023-06-10T11:48:55;25.00;41.80
24522;DHT22;12680;57.804;12.190;2023-06-10T11:51:24;25.10;41.80
24522;DHT22;12680;57.804;12.190;2023-06-10T11:53:52;25.00;41.30
24522;DHT22;12680;57.804;12.190;2023-06-10T11:56:23;25.00;41.60
24522;DHT22;12680;57.804;12.190;2023-06-10T11:59:00;25.10;41.60
24522;DHT22;12680;57.804;12.190;2023-06-10T12:01:35;25.20;41.60
24522;DHT22;12680;57.804;12.190;2023-06-10T12:04:12;25.40;41.80
24522;DHT22;12680;57.804;12.190;2023-06-10T12:06:50;25.50;41.50
24522;DHT22;12680;57.804;12.190;2023-06-10T12:09:30;25.50;41.70
24522;DHT22;12680;57.804;12.190;2023-06-10T12:12:04;25.70;42.00
24522;DHT22;12680;57.804;12.190;2023-06-10T12:14:54;25.80;41.50
24522;DHT22;12680;57.804;12.190;2023-06-10T12:20:23;25.60;40.80
24522;DHT22;12680;57.804;12.190;2023-06-10T12:22:50;25.60;40.60
24522;DHT22;12680;57.804;12.190;2023-06-10T12:25:24;25.50;40.20
24522;DHT22;12680;57.804;12.190;2023-06-10T12:27:53;25.50;40.50
24522;DHT22;12680;57.804;12.190;2023-06-10T12:30:23;25.70;40.80
24522;DHT22;12680;57.804;12.190;2023-06-10T12:32:51;25.90;40.70
24522;DHT22;12680;57.804;12.190;2023-06-10T12:35:26;25.80;40.20
24522;DHT22;12680;57.804;12.190;2023-06-10T12:38:06;25.90;40.00
24522;DHT22;12680;57.804;12.190;2023-06-10T12:40:38;25.90;39.70
24522;DHT22;12680;57.804;12.190;2023-06-10T12:43:07;26.10;40.10
24522;DHT22;12680;57.804;12.190;2023-06-10T12:45:35;26.20;39.30
24522;DHT22;12680;57.804;12.190;2023-06-10T12:48:18;26.20;39.30
24522;DHT22;12680;57.804;12.190;2023-06-10T12:50:51;26.30;38.50
24522;DHT22;12680;57.804;12.190;2023-06-10T12:53:19;26.30;38.20
24522;DHT22;12680;57.804;12.190;2023-06-10T12:55:47;26.40;37.80
24522;DHT22;12680;57.804;12.190;2023-06-10T12:58:14;26.50;38.40
24522;DHT22;12680;57.804;12.190;2023-06-10T13:00:41;26.70;38.60
24522;DHT22;12680;57.804;12.190;2023-06-10T13:03:09;26.70;38.30
24522;DHT22;12680;57.804;12.190;2023-06-10T13:05:37;26.70;38.20
24522;DHT22;12680;57.804;12.190;2023-06-10T13:08:06;26.70;37.70
24522;DHT22;12680;57.804;12.190;2023-06-10T13:10:34;26.90;37.20
24522;DHT22;12680;57.804;12.190;2023-06-10T13:13:02;26.90;36.70
24522;DHT22;12680;57.804;12.190;2023-06-10T13:15:32;26.90;36.60
24522;DHT22;12680;57.804;12.190;2023-06-10T13:18:08;26.90;36.60
24522;DHT22;12680;57.804;12.190;2023-06-10T13:20:35;27.10;36.20
24522;DHT22;12680;57.804;12.190;2023-06-10T13:23:02;27.10;35.50
24522;DHT22;12680;57.804;12.190;2023-06-10T13:25:29;27.10;35.70
24522;DHT22;12680;57.804;12.190;2023-06-10T13:27:56;27.10;35.60
24522;DHT22;12680;57.804;12.190;2023-06-10T13:30:24;27.10;35.60
24522;DHT22;12680;57.804;12.190;2023-06-10T13:32:50;27.30;35.80
24522;DHT22;12680;57.804;12.190;2023-06-10T13:35:17;27.30;35.60
24522;DHT22;12680;57.804;12.190;2023-06-10T13:37:44;27.30;35.70
24522;DHT22;12680;57.804;12.190;2023-06-10T13:40:11;27.30;35.60
24522;DHT22;12680;57.804;12.190;2023-06-10T13:42:39;27.30;35.60
24522;DHT22;12680;57.804;12.190;2023-06-10T13:45:06;27.30;35.50
24522;DHT22;12680;57.804;12.190;2023-06-10T13:47:33;27.40;35.30
24522;DHT22;12680;57.804;12.190;2023-06-10T13:50:01;27.40;35.40
24522;DHT22;12680;57.804;12.190;2023-06-10T13:52:27;27.40;35.30
24522;DHT22;12680;57.804;12.190;2023-06-10T13:54:54;27.40;35.40
24522;DHT22;12680;57.804;12.190;2023-06-10T13:57:21;27.60;35.20
24522;DHT22;12680;57.804;12.190;2023-06-10T13:59:48;27.30;35.20
24522;DHT22;12680;57.804;12.190;2023-06-10T14:02:15;27.30;34.70
24522;DHT22;12680;57.804;12.190;2023-06-10T14:04:42;27.30;34.90
24522;DHT22;12680;57.804;12.190;2023-06-10T14:07:08;27.40;35.20
24522;DHT22;12680;57.804;12.190;2023-06-10T14:09:35;27.50;34.80
24522;DHT22;12680;57.804;12.190;2023-06-10T14:12:02;27.50;34.40
24522;DHT22;12680;57.804;12.190;2023-06-10T14:14:30;27.50;34.80
24522;DHT22;12680;57.804;12.190;2023-06-10T14:16:57;27.50;34.60
24522;DHT22;12680;57.804;12.190;2023-06-10T14:19:24;27.40;34.20
24522;DHT22;12680;57.804;12.190;2023-06-10T14:21:51;27.30;34.30
24522;DHT22;12680;57.804;12.190;2023-06-10T14:24:20;27.30;35.40
24522;DHT22;12680;57.804;12.190;2023-06-10T14:26:47;27.50;35.20
24522;DHT22;12680;57.804;12.190;2023-06-10T14:29:14;27.60;35.20
24522;DHT22;12680;57.804;12.190;2023-06-10T14:31:41;27.70;35.10
24522;DHT22;12680;57.804;12.190;2023-06-10T14:34:08;27.70;34.40
24522;DHT22;12680;57.804;12.190;2023-06-10T14:36:36;27.60;34.00
24522;DHT22;12680;57.804;12.190;2023-06-10T14:39:04;27.50;34.10
24522;DHT22;12680;57.804;12.190;2023-06-10T14:41:30;27.50;34.30
24522;DHT22;12680;57.804;12.190;2023-06-10T14:43:57;27.60;34.20
24522;DHT22;12680;57.804;12.190;2023-06-10T14:46:24;27.60;34.40
24522;DHT22;12680;57.804;12.190;2023-06-10T14:48:51;27.70;34.70
24522;DHT22;12680;57.804;12.190;2023-06-10T14:51:18;27.80;34.70
24522;DHT22;12680;57.804;12.190;2023-06-10T14:53:47;27.90;34.40
24522;DHT22;12680;57.804;12.190;2023-06-10T14:56:14;28.00;34.30
24522;DHT22;12680;57.804;12.190;2023-06-10T14:58:40;28.00;34.10
24522;DHT22;12680;57.804;12.190;2023-06-10T15:01:07;27.90;34.20
24522;DHT22;12680;57.804;12.190;2023-06-10T15:03:34;27.80;33.80
24522;DHT22;12680;57.804;12.190;2023-06-10T15:06:01;28.00;34.30
24522;DHT22;12680;57.804;12.190;2023-06-10T15:08:28;28.20;34.80
24522;DHT22;12680;57.804;12.190;2023-06-10T15:10:55;28.40;35.00
24522;DHT22;12680;57.804;12.190;2023-06-10T15:13:24;28.50;34.50
24522;DHT22;12680;57.804;12.190;2023-06-10T15:15:50;28.60;34.10
24522;DHT22;12680;57.804;12.190;2023-06-10T15:18:17;28.60;33.80
24522;DHT22;12680;57.804;12.190;2023-06-10T15:20:44;28.50;33.50
24522;DHT22;12680;57.804;12.190;2023-06-10T15:23:11;28.50;34.20
24522;DHT22;12680;57.804;12.190;2023-06-10T15:25:38;28.70;34.20
24522;DHT22;12680;57.804;12.190;2023-06-10T15:28:07;28.70;34.50
24522;DHT22;12680;57.804;12.190;2023-06-10T15:30:34;28.70;33.90